Time;durP1;ratioP1;P1;durP2;ratioP2;P2;SDS_P1;SDS_P2;PMS_P1;PMS_P2;Temp;Humidity;BMP_temperature;BMP_pressure;BME280_temperature;BME280_humidity;BME280_pressure;Samples;Min_cycle;Max_cycle;Signal;HPM_P1;HPM_P2
2024/02/09 00:01:41;;;;;;;6.15;2.90;;;2.20;99.90;;;;;;6345560;22;20089;-91
2024/02/09 00:04:12;;;;;;;4.43;2.17;;;2.20;99.90;;;;;;6350515;22;20371;-89
2024/02/09 00:07:04;;;;;;;2.92;2.13;;;2.20;99.90;;;;;;6376446;22;20043;-91
2024/02/09 00:09:30;;;;;;;4.18;1.85;;;2.20;99.90;;;;;;6345283;22;20013;-91
2024/02/09 00:11:56;;;;;;;4.07;2.30;;;2.20;99.90;;;;;;6345243;22;19999;-93
2024/02/09 00:14:22;;;;;;;4.80;2.60;;;2.20;99.90;;;;;;6343565;22;20021;-94
2024/02/09 00:16:48;;;;;;;6.28;3.50;;;2.20;99.90;;;;;;6344625;22;20003;-93
2024/02/09 00:19:13;;;;;;;4.65;1.75;;;2.20;99.90;;;;;;6343999;22;20017;-95
2024/02/09 00:21:39;;;;;;;6.05;2.60;;;2.20;99.90;;;;;;6343797;22;20070;-95
2024/02/09 00:24:06;;;;;;;4.35;1.92;;;2.20;99.90;;;;;;6344088;22;20027;-95
2024/02/09 00:26:31;;;;;;;4.10;2.50;;;2.30;99.90;;;;;;6344450;22;20003;-95
2024/02/09 00:29:00;;;;;;;4.03;2.33;;;2.30;99.90;;;;;;6345212;22;20072;-95
2024/02/09 00:31:27;;;;;;;3.50;2.25;;;2.30;99.90;;;;;;6372601;22;20003;-95
2024/02/09 00:33:53;;;;;;;3.90;1.88;;;2.30;99.90;;;;;;6319171;22;20025;-95
2024/02/09 00:36:18;;;;;;;4.90;1.92;;;2.40;99.90;;;;;;6344685;22;20497;-94
2024/02/09 00:38:44;;;;;;;4.05;2.13;;;2.30;99.90;;;;;;6345743;22;20013;-94
2024/02/09 00:41:25;;;;;;;3.55;2.45;;;2.30;99.90;;;;;;6347332;22;20547;-94
2024/02/09 00:43:56;;;;;;;3.40;2.53;;;2.40;99.90;;;;;;6347316;22;20085;-92
2024/02/09 00:46:32;;;;;;;3.30;2.15;;;2.40;99.90;;;;;;6345178;22;20010;-93
2024/02/09 00:49:03;;;;;;;3.65;2.22;;;2.40;99.90;;;;;;6372220;22;20009;-93
2024/02/09 00:51:31;;;;;;;4.20;2.80;;;2.40;99.90;;;;;;6344809;22;20127;-93
2024/02/09 00:53:57;;;;;;;4.68;2.65;;;2.40;99.90;;;;;;6372796;22;20024;-92
2024/02/09 00:56:23;;;;;;;3.58;2.47;;;2.50;99.90;;;;;;6343158;22;20002;-92
2024/02/09 00:59:01;;;;;;;4.03;2.67;;;2.50;99.90;;;;;;6343785;22;20006;-92
2024/02/09 01:01:28;;;;;;;4.60;2.90;;;2.50;99.90;;;;;;6342657;22;20465;-92
2024/02/09 01:03:54;;;;;;;3.85;2.58;;;2.50;99.90;;;;;;6342626;22;20425;-92
2024/02/09 01:06:21;;;;;;;4.50;2.75;;;2.50;99.90;;;;;;6342463;22;20037;-92
2024/02/09 01:08:47;;;;;;;4.72;3.00;;;2.50;99.90;;;;;;6343166;22;20009;-92
2024/02/09 01:11:14;;;;;;;3.90;2.78;;;2.50;99.90;;;;;;6343264;22;20006;-92
2024/02/09 02:45:38;;;;;;;0.30;0.30;;;2.70;99.90;;;;;;6372042;22;20521;-93
2024/02/09 03:05:24;;;;;;;0.30;0.30;;;2.70;99.90;;;;;;6372655;22;20014;-91
2024/02/09 03:07:50;;;;;;;0.75;0.50;;;2.70;99.90;;;;;;6344159;22;20059;-91
2024/02/09 03:10:16;;;;;;;0.60;0.60;;;2.70;99.90;;;;;;6344125;22;20002;-92
2024/02/09 03:12:43;;;;;;;0.90;0.60;;;2.70;99.90;;;;;;6344899;22;20054;-92
2024/02/09 03:15:23;;;;;;;0.70;0.63;;;2.70;99.90;;;;;;6344248;22;20014;-93
2024/02/09 03:17:51;;;;;;;0.98;0.82;;;2.70;99.90;;;;;;6344816;22;20005;-92
2024/02/09 03:20:18;;;;;;;0.60;0.60;;;2.70;99.90;;;;;;6345343;22;20009;-94
2024/02/09 03:22:47;;;;;;;0.55;0.55;;;2.70;99.90;;;;;;6346034;22;20008;-93
2024/02/09 03:25:13;;;;;;;0.68;0.60;;;2.70;99.90;;;;;;6345012;22;20090;-93
2024/02/09 03:27:42;;;;;;;0.70;0.60;;;2.70;99.90;;;;;;6345527;22;20002;-93
2024/02/09 03:30:09;;;;;;;0.50;0.50;;;2.70;99.90;;;;;;6347778;22;20055;-92
2024/02/09 03:32:36;;;;;;;1.02;0.70;;;2.70;99.90;;;;;;6346692;22;20010;-91
2024/02/09 03:35:31;;;;;;;0.63;0.63;;;2.70;99.90;;;;;;6344351;22;20029;-92
2024/02/09 03:37:57;;;;;;;0.57;0.57;;;2.70;99.90;;;;;;6344382;22;20066;-92
2024/02/09 03:40:23;;;;;;;0.65;0.50;;;2.70;99.90;;;;;;6346951;22;20006;-92
2024/02/09 03:42:49;;;;;;;0.50;0.50;;;2.70;99.90;;;;;;6357854;22;20030;-92
2024/02/09 03:45:15;;;;;;;0.60;0.60;;;2.70;99.90;;;;;;6366427;22;19998;-94
2024/02/09 03:47:40;;;;;;;0.65;0.60;;;2.70;99.90;;;;;;6364893;22;20449;-92
2024/02/09 03:50:18;;;;;;;0.90;0.55;;;2.70;99.90;;;;;;6351128;22;20013;-92
2024/02/09 03:52:44;;;;;;;0.50;0.47;;;2.70;99.90;;;;;;6350417;22;20107;-91
2024/02/09 03:55:39;;;;;;;1.45;0.17;;;2.70;99.90;;;;;;6350393;22;20014;-91
2024/02/09 03:58:05;;;;;;;0.47;0.43;;;2.80;99.90;;;;;;6350505;22;19994;-90
2024/02/09 04:00:31;;;;;;;0.30;0.30;;;2.80;99.90;;;;;;6353413;22;20034;-91
2024/02/09 04:02:57;;;;;;;0.20;0.20;;;2.80;99.90;;;;;;6352265;22;20006;-91
2024/02/09 04:05:31;;;;;;;0.30;0.25;;;2.80;99.90;;;;;;6349986;22;20028;-91
2024/02/09 04:08:04;;;;;;;0.65;0.30;;;2.80;99.90;;;;;;6356667;22;20448;-91
2024/02/09 04:10:29;;;;;;;0.35;0.35;;;2.90;99.90;;;;;;6359254;22;20009;-91
2024/02/09 04:13:01;;;;;;;0.20;0.20;;;2.90;99.90;;;;;;6364270;22;19999;-92
2024/02/09 04:15:28;;;;;;;0.38;0.30;;;2.90;99.90;;;;;;6365021;22;20398;-92
2024/02/09 04:17:54;;;;;;;0.32;0.32;;;2.90;99.90;;;;;;6365845;22;20006;-91
2024/02/09 04:20:19;;;;;;;0.32;0.30;;;3.00;99.90;;;;;;6357849;22;20047;-92
2024/02/09 04:22:45;;;;;;;0.20;0.20;;;3.00;99.90;;;;;;6348346;22;20020;-91
2024/02/09 04:25:21;;;;;;;0.25;0.25;;;3.00;99.90;;;;;;6378374;22;20002;-92
2024/02/09 04:27:49;;;;;;;0.15;0.15;;;3.00;99.90;;;;;;6350802;22;20089;-92
2024/02/09 04:30:15;;;;;;;0.22;0.20;;;3.00;99.90;;;;;;6350815;22;20012;-91
2024/02/09 04:32:41;;;;;;;0.30;0.28;;;3.00;99.90;;;;;;6349862;22;20017;-92
2024/02/09 04:35:07;;;;;;;0.10;0.10;;;3.00;99.90;;;;;;6346465;22;20010;-91
2024/02/09 04:37:33;;;;;;;0.28;0.28;;;3.00;99.90;;;;;;6346342;22;20005;-92
2024/02/09 04:39:58;;;;;;;0.30;0.30;;;3.00;99.90;;;;;;6346531;22;20331;-91
2024/02/09 04:42:27;;;;;;;0.15;0.15;;;3.00;99.90;;;;;;6346363;22;20025;-92
2024/02/09 04:45:05;;;;;;;0.38;0.30;;;3.00;99.90;;;;;;6345588;22;20089;-91
2024/02/09 04:47:31;;;;;;;0.20;0.20;;;3.00;99.90;;;;;;6345824;22;20021;-90
2024/02/09 04:49:57;;;;;;;0.30;0.30;;;3.10;99.90;;;;;;6345298;22;20410;-91
2024/02/09 04:52:27;;;;;;;0.28;0.28;;;3.00;99.90;;;;;;6343632;22;20433;-91
2024/02/09 04:54:58;;;;;;;0.50;0.50;;;3.10;99.90;;;;;;6344368;22;20033;-91
2024/02/09 04:57:23;;;;;;;0.52;0.40;;;3.10;99.90;;;;;;6346535;22;20002;-91
2024/02/09 04:59:50;;;;;;;0.20;0.20;;;3.10;99.90;;;;;;6344751;22;20029;-90
2024/02/09 05:02:15;;;;;;;0.75;0.45;;;3.10;99.90;;;;;;6345218;22;20429;-91
2024/02/09 05:04:41;;;;;;;1.00;0.38;;;3.10;99.90;;;;;;6345140;22;20037;-91
2024/02/09 05:07:07;;;;;;;0.68;0.45;;;3.10;99.90;;;;;;6345015;22;20003;-91
2024/02/09 05:09:32;;;;;;;0.20;0.20;;;3.10;99.90;;;;;;6344172;22;20009;-90
2024/02/09 05:11:58;;;;;;;0.80;0.47;;;3.10;99.90;;;;;;6343646;22;20002;-91
2024/02/09 05:14:24;;;;;;;1.67;0.70;;;3.10;99.90;;;;;;6343660;22;20052;-90
2024/02/09 05:16:50;;;;;;;0.55;0.40;;;3.10;99.90;;;;;;6344143;22;20449;-92
2024/02/09 05:19:16;;;;;;;0.30;0.30;;;3.10;99.90;;;;;;6344300;22;20002;-91
2024/02/09 05:21:42;;;;;;;0.25;0.25;;;3.10;99.90;;;;;;6344593;22;20005;-91
2024/02/09 05:24:12;;;;;;;0.30;0.30;;;3.10;99.90;;;;;;6344220;22;20434;-91
2024/02/09 05:26:44;;;;;;;0.90;0.60;;;3.10;99.90;;;;;;6344154;22;20006;-91
2024/02/09 05:29:09;;;;;;;0.50;0.40;;;3.10;99.90;;;;;;6371697;22;20003;-90
2024/02/09 05:31:41;;;;;;;0.85;0.43;;;3.10;99.90;;;;;;6343597;22;20360;-91
2024/02/09 05:34:07;;;;;;;0.60;0.47;;;3.10;99.90;;;;;;6343554;22;20015;-89
2024/02/09 05:36:35;;;;;;;0.57;0.47;;;3.10;99.90;;;;;;6346210;22;20010;-89
2024/02/09 05:39:02;;;;;;;1.40;0.60;;;3.00;99.90;;;;;;6343462;22;20014;-90
2024/02/09 05:41:28;;;;;;;0.95;0.70;;;3.00;99.90;;;;;;6342064;22;20009;-90
2024/02/09 05:44:09;;;;;;;1.00;0.70;;;3.10;99.90;;;;;;6342239;22;20002;-89
2024/02/09 05:46:35;;;;;;;3.63;0.50;;;3.10;99.90;;;;;;6342732;22;20333;-90
2024/02/09 05:49:00;;;;;;;0.52;0.52;;;3.10;99.90;;;;;;6342526;22;20012;-89
2024/02/09 05:51:26;;;;;;;0.95;0.50;;;3.10;99.90;;;;;;6342601;22;20010;-89
2024/02/09 05:53:51;;;;;;;0.73;0.40;;;3.10;99.90;;;;;;6343376;22;20096;-89
2024/02/09 05:56:25;;;;;;;0.40;0.30;;;3.10;99.90;;;;;;6343546;22;20020;-90
2024/02/09 05:58:57;;;;;;;0.70;0.50;;;3.10;99.90;;;;;;6343929;22;20022;-90
2024/02/09 06:01:29;;;;;;;0.73;0.60;;;3.10;99.90;;;;;;6343209;22;19998;-90
2024/02/09 06:03:54;;;;;;;0.88;0.50;;;3.10;99.90;;;;;;6342714;22;20025;-91
2024/02/09 06:06:23;;;;;;;1.08;0.50;;;3.10;99.90;;;;;;6343465;22;20131;-90
2024/02/09 06:08:49;;;;;;;0.60;0.50;;;3.10;99.90;;;;;;6343419;22;20007;-90
2024/02/09 06:11:15;;;;;;;0.52;0.40;;;3.10;99.90;;;;;;6342386;22;20065;-90
2024/02/09 06:13:44;;;;;;;0.88;0.60;;;3.10;99.90;;;;;;6343307;22;20010;-90
2024/02/09 06:16:11;;;;;;;2.63;0.90;;;3.10;99.90;;;;;;6343202;22;20018;-90
2024/02/09 06:18:37;;;;;;;1.50;0.73;;;3.00;99.90;;;;;;6342154;22;20063;-90
2024/02/09 06:21:03;;;;;;;1.00;0.63;;;3.00;99.90;;;;;;6341984;22;20006;-90
2024/02/09 06:23:29;;;;;;;1.45;0.70;;;3.00;99.90;;;;;;6342044;22;20509;-90
2024/02/09 06:25:57;;;;;;;0.75;0.70;;;3.00;99.90;;;;;;6343306;22;20006;-90
2024/02/09 06:28:22;;;;;;;1.05;0.70;;;3.00;99.90;;;;;;6342915;22;20087;-90
2024/02/09 06:30:48;;;;;;;1.17;0.80;;;3.00;99.90;;;;;;6343471;22;20002;-89
2024/02/09 06:33:20;;;;;;;1.15;0.60;;;3.00;99.90;;;;;;6343357;22;20434;-90
2024/02/09 06:35:46;;;;;;;2.08;1.25;;;2.90;99.90;;;;;;6343106;22;20003;-90
2024/02/09 06:38:41;;;;;;;1.20;0.95;;;2.90;99.90;;;;;;6342810;22;19998;-90
2024/02/09 06:41:11;;;;;;;1.40;1.00;;;2.90;99.90;;;;;;6348493;22;20002;-88
2024/02/09 06:43:38;;;;;;;1.17;0.80;;;2.90;99.90;;;;;;6349950;22;20006;-88
2024/02/09 06:46:04;;;;;;;1.67;1.10;;;2.90;99.90;;;;;;6350307;22;20136;-89
2024/02/09 06:48:30;;;;;;;2.88;1.45;;;2.90;99.90;;;;;;6345929;22;20007;-89
2024/02/09 06:50:58;;;;;;;2.13;1.40;;;2.90;99.90;;;;;;6343060;22;20007;-89
2024/02/09 06:53:24;;;;;;;1.50;1.10;;;2.90;99.90;;;;;;6342497;22;20002;-90
2024/02/09 06:56:14;;;;;;;3.22;1.67;;;2.90;99.90;;;;;;6341062;22;20010;-89
2024/02/09 06:58:40;;;;;;;2.20;1.27;;;2.90;99.90;;;;;;6342959;22;19999;-88
2024/02/09 07:01:10;;;;;;;2.90;1.52;;;2.90;99.90;;;;;;6343716;22;20002;-90
2024/02/09 07:03:39;;;;;;;1.38;0.80;;;2.90;99.90;;;;;;6343952;22;20033;-88
2024/02/09 07:06:07;;;;;;;3.65;2.25;;;2.90;99.90;;;;;;6342920;22;20457;-89
2024/02/09 07:08:52;;;;;;;1.38;0.90;;;2.90;99.90;;;;;;6343029;22;20010;-89
2024/02/09 07:11:23;;;;;;;4.03;2.23;;;2.90;99.90;;;;;;6370869;22;20002;-89
2024/02/09 07:13:49;;;;;;;29.98;3.08;;;2.90;99.90;;;;;;6343390;22;20323;-89
2024/02/09 07:16:14;;;;;;;4.57;2.22;;;2.90;99.90;;;;;;6344047;22;20361;-91
2024/02/09 07:18:41;;;;;;;2.15;1.27;;;2.90;99.90;;;;;;6343391;22;20018;-90
2024/02/09 07:21:14;;;;;;;2.20;1.35;;;2.90;99.90;;;;;;6343260;22;20006;-90
2024/02/09 07:23:40;;;;;;;2.83;1.77;;;2.90;99.90;;;;;;6343174;22;20003;-90
2024/02/09 07:26:15;;;;;;;3.65;2.35;;;2.90;99.90;;;;;;6344164;22;20077;-90
2024/02/09 07:28:59;;;;;;;2.55;1.15;;;2.90;99.90;;;;;;6345132;22;20010;-90
2024/02/09 07:31:25;;;;;;;6.35;1.88;;;2.90;99.90;;;;;;6344679;22;20071;-90
2024/02/09 07:33:51;;;;;;;2.17;1.33;;;2.80;99.90;;;;;;6344563;22;20453;-89
2024/02/09 07:36:18;;;;;;;2.63;1.75;;;2.90;99.90;;;;;;6355488;22;20017;-90
2024/02/09 07:38:44;;;;;;;2.70;2.08;;;2.90;99.90;;;;;;6356207;22;19998;-90
2024/02/09 07:41:20;;;;;;;7.47;3.20;;;2.90;99.90;;;;;;6387828;22;20006;-90
2024/02/09 07:43:59;;;;;;;2.55;1.45;;;2.90;99.90;;;;;;6362308;22;19999;-88
2024/02/09 07:46:27;;;;;;;2.58;1.85;;;2.90;99.90;;;;;;6381943;22;19998;-88
2024/02/09 07:48:55;;;;;;;4.28;2.33;;;2.90;99.90;;;;;;6345738;22;20013;-88
2024/02/09 07:51:20;;;;;;;3.92;2.20;;;2.90;99.90;;;;;;6344476;22;20084;-89
2024/02/09 07:53:52;;;;;;;7.45;3.05;;;2.90;99.90;;;;;;6343761;22;20086;-89
2024/02/09 07:56:24;;;;;;;5.80;2.78;;;3.00;99.90;;;;;;6343279;22;20073;-90
2024/02/09 07:58:52;;;;;;;8.20;3.50;;;3.00;99.90;;;;;;6371864;22;20006;-90
2024/02/09 08:01:21;;;;;;;10.23;3.53;;;3.00;99.90;;;;;;6343445;22;20055;-90
2024/02/09 08:03:54;;;;;;;6.47;3.50;;;3.10;99.90;;;;;;6342376;22;20002;-89
2024/02/09 08:06:21;;;;;;;5.28;2.45;;;3.10;99.90;;;;;;6343220;22;20009;-89
2024/02/09 08:08:52;;;;;;;5.75;3.15;;;3.10;99.90;;;;;;6343617;22;20013;-90
2024/02/09 08:11:19;;;;;;;4.78;2.63;;;3.10;99.90;;;;;;6343373;22;20002;-90
2024/02/09 08:13:44;;;;;;;3.83;2.17;;;3.10;99.90;;;;;;6342906;22;20006;-90
2024/02/09 08:16:14;;;;;;;4.43;2.38;;;3.10;99.90;;;;;;6343747;22;20009;-90
2024/02/09 08:18:53;;;;;;;4.78;2.55;;;3.10;99.90;;;;;;6344157;22;20371;-89
2024/02/09 08:21:19;;;;;;;5.60;2.75;;;3.10;99.90;;;;;;6344862;22;20010;-90
2024/02/09 08:23:44;;;;;;;4.60;2.28;;;3.10;99.90;;;;;;6343775;22;20010;-89
2024/02/09 08:26:10;;;;;;;4.60;2.40;;;3.10;99.90;;;;;;6343764;22;20083;-91
2024/02/09 08:28:55;;;;;;;5.35;2.35;;;3.10;99.90;;;;;;6344803;22;20013;-90
2024/02/09 08:31:21;;;;;;;5.75;2.58;;;3.10;99.90;;;;;;6343529;22;20002;-90
2024/02/09 08:33:49;;;;;;;7.88;3.42;;;3.10;99.90;;;;;;6345255;22;20029;-90
2024/02/09 08:36:24;;;;;;;4.65;2.47;;;3.10;99.90;;;;;;6342762;22;20003;-90
2024/02/09 08:38:50;;;;;;;3.72;2.10;;;3.20;99.90;;;;;;6343976;22;20002;-90
2024/02/09 08:41:18;;;;;;;5.20;2.20;;;3.20;99.90;;;;;;6345059;22;20109;-90
2024/02/09 08:43:47;;;;;;;4.13;2.20;;;3.20;99.90;;;;;;6345222;22;19998;-90
2024/02/09 08:46:12;;;;;;;5.68;2.25;;;3.20;99.90;;;;;;6345459;22;20003;-90
2024/02/09 08:48:38;;;;;;;4.22;2.05;;;3.20;99.90;;;;;;6343319;22;20436;-91
2024/02/09 08:51:07;;;;;;;4.60;2.30;;;3.20;99.90;;;;;;6344527;22;20013;-90
2024/02/09 08:53:42;;;;;;;14.80;6.45;;;3.20;99.90;;;;;;6343564;22;20553;-90
2024/02/09 08:56:09;;;;;;;5.03;2.70;;;3.20;99.90;;;;;;6343602;22;20033;-90
2024/02/09 08:58:59;;;;;;;5.18;2.30;;;3.20;99.90;;;;;;6363882;22;19999;-91
2024/02/09 09:01:25;;;;;;;5.40;2.40;;;3.20;99.90;;;;;;6339481;22;20063;-90
2024/02/09 09:03:52;;;;;;;7.32;2.40;;;3.20;99.90;;;;;;6342168;22;20010;-90
2024/02/09 09:06:18;;;;;;;4.22;2.38;;;3.20;99.90;;;;;;6341650;22;19998;-92
2024/02/09 09:08:44;;;;;;;4.50;2.53;;;3.20;99.90;;;;;;6341156;22;20055;-91
2024/02/09 09:11:11;;;;;;;4.63;2.55;;;3.20;99.90;;;;;;6340909;22;19999;-90
2024/02/09 09:13:54;;;;;;;4.00;2.30;;;3.20;99.90;;;;;;6369667;22;20018;-90
2024/02/09 09:16:20;;;;;;;4.40;2.45;;;3.20;99.90;;;;;;6342233;22;20090;-90
2024/02/09 09:18:46;;;;;;;3.53;2.17;;;3.20;99.90;;;;;;6342572;22;20004;-90
2024/02/09 09:21:12;;;;;;;3.72;2.20;;;3.30;99.90;;;;;;6343069;22;20052;-91
2024/02/09 09:23:40;;;;;;;5.43;2.72;;;3.30;99.90;;;;;;6346196;22;20002;-90
2024/02/09 09:26:06;;;;;;;5.63;2.63;;;3.30;99.90;;;;;;6344162;22;20002;-91
2024/02/09 09:28:33;;;;;;;5.15;2.65;;;3.30;99.90;;;;;;6344517;22;20010;-91
2024/02/09 09:30:59;;;;;;;4.38;2.20;;;3.40;99.90;;;;;;6342244;22;20051;-89
2024/02/09 09:33:25;;;;;;;5.03;2.65;;;3.40;99.90;;;;;;6341301;22;20017;-91
2024/02/09 09:35:55;;;;;;;4.55;2.53;;;3.40;99.90;;;;;;6342167;22;20464;-92
2024/02/09 09:38:23;;;;;;;4.68;2.75;;;3.40;99.90;;;;;;6349913;22;20062;-91
2024/02/09 09:40:53;;;;;;;4.68;2.80;;;3.40;99.90;;;;;;6321807;22;20033;-91
2024/02/09 09:43:22;;;;;;;4.93;2.63;;;3.40;99.90;;;;;;6341908;22;20009;-90
2024/02/09 09:46:00;;;;;;;5.03;2.67;;;3.50;99.90;;;;;;6342414;22;20329;-91
2024/02/09 09:48:27;;;;;;;6.57;3.22;;;3.50;99.90;;;;;;6342000;22;20321;-91
2024/02/09 09:51:01;;;;;;;5.97;3.17;;;3.50;99.90;;;;;;6342062;22;20010;-90
2024/02/09 09:53:53;;;;;;;5.20;2.78;;;3.60;99.90;;;;;;6341914;22;20014;-91
2024/02/09 09:56:22;;;;;;;5.97;2.65;;;3.70;99.90;;;;;;6345045;22;20002;-91
2024/02/09 09:58:48;;;;;;;7.45;3.10;;;3.70;99.90;;;;;;6343070;22;19998;-91
2024/02/09 10:01:16;;;;;;;5.43;3.00;;;3.70;99.90;;;;;;6343605;22;20063;-91
2024/02/09 10:03:43;;;;;;;9.38;4.18;;;3.80;99.90;;;;;;6317421;22;20007;-91
2024/02/09 10:06:33;;;;;;;4.95;2.67;;;3.80;99.90;;;;;;6342734;22;20002;-92
2024/02/09 10:08:59;;;;;;;5.57;2.75;;;3.80;99.90;;;;;;6341239;22;20006;-92
2024/02/09 10:11:25;;;;;;;4.72;3.03;;;3.80;99.90;;;;;;6343371;22;20421;-89
2024/02/09 10:13:56;;;;;;;4.45;2.47;;;3.90;99.90;;;;;;6342405;22;20006;-92
2024/02/09 10:16:22;;;;;;;5.63;3.10;;;3.90;99.90;;;;;;6316090;22;20022;-91
2024/02/09 10:18:48;;;;;;;4.60;3.50;;;4.00;99.90;;;;;;6342337;22;20463;-90
2024/02/09 10:21:14;;;;;;;4.40;2.50;;;4.00;99.90;;;;;;6341526;22;20007;-91
2024/02/09 10:23:48;;;;;;;5.50;2.80;;;4.00;99.90;;;;;;6341570;22;20438;-91
2024/02/09 10:26:14;;;;;;;5.03;2.90;;;4.10;99.90;;;;;;6341642;22;20026;-89
2024/02/09 10:28:39;;;;;;;4.95;2.50;;;4.10;99.90;;;;;;6342319;22;20492;-91
2024/02/09 10:31:22;;;;;;;5.53;3.17;;;4.10;99.90;;;;;;6341765;22;20051;-92
2024/02/09 10:33:53;;;;;;;5.63;2.92;;;4.20;99.90;;;;;;6341689;22;20010;-92
2024/02/09 10:36:22;;;;;;;5.18;3.20;;;4.20;99.90;;;;;;6344113;22;20445;-92
2024/02/09 10:38:48;;;;;;;9.93;3.88;;;4.20;99.90;;;;;;6343957;22;20026;-91
2024/02/09 10:41:17;;;;;;;8.70;4.32;;;4.30;99.90;;;;;;6344597;22;20065;-91
2024/02/09 10:43:51;;;;;;;6.68;3.30;;;4.30;99.90;;;;;;6345224;22;20005;-90
2024/02/09 10:46:18;;;;;;;5.03;3.10;;;4.40;99.90;;;;;;6344800;22;20013;-90
2024/02/09 10:48:50;;;;;;;6.50;3.60;;;4.40;99.90;;;;;;6345719;22;20002;-91
2024/02/09 10:51:18;;;;;;;5.07;3.53;;;4.50;99.90;;;;;;6346034;22;20003;-91
2024/02/09 10:54:07;;;;;;;8.02;4.68;;;4.60;99.90;;;;;;6344218;22;20002;-91
2024/02/09 10:56:35;;;;;;;8.68;4.57;;;4.60;99.90;;;;;;6344330;22;20002;-91
2024/02/09 10:59:01;;;;;;;7.45;3.80;;;4.70;99.90;;;;;;6344195;22;20006;-92
2024/02/09 11:01:33;;;;;;;8.20;4.07;;;4.90;99.90;;;;;;6344244;22;20010;-92
2024/02/09 11:04:19;;;;;;;6.85;4.53;;;5.00;99.90;;;;;;6346188;22;20009;-92
2024/02/09 11:06:45;;;;;;;6.30;3.65;;;5.00;99.90;;;;;;6372790;22;20050;-92
2024/02/09 11:09:12;;;;;;;6.50;2.90;;;5.10;99.90;;;;;;6348107;22;20014;-93
2024/02/09 11:11:39;;;;;;;8.45;4.13;;;5.20;99.90;;;;;;6344842;22;20066;-90
2024/02/09 11:14:10;;;;;;;8.02;4.32;;;5.20;99.90;;;;;;6347460;22;20006;-90
2024/02/09 11:16:47;;;;;;;8.07;3.90;;;5.30;99.90;;;;;;6344731;22;20059;-92
2024/02/09 11:19:19;;;;;;;9.75;4.72;;;5.40;99.90;;;;;;6318548;22;20033;-91
2024/02/09 11:21:52;;;;;;;9.50;5.13;;;5.40;99.90;;;;;;6344606;22;20017;-91
2024/02/09 11:24:20;;;;;;;9.13;4.30;;;5.50;99.90;;;;;;6344903;22;19998;-90
2024/02/09 11:26:49;;;;;;;7.70;3.78;;;5.60;99.90;;;;;;6344560;22;20085;-91
2024/02/09 11:29:17;;;;;;;6.15;3.92;;;5.60;99.90;;;;;;6344473;22;20003;-91
2024/02/09 11:31:50;;;;;;;7.93;3.92;;;5.70;99.90;;;;;;6346483;22;20498;-91
2024/02/09 11:34:24;;;;;;;5.57;3.40;;;5.70;99.90;;;;;;6346213;22;20113;-91
2024/02/09 11:36:52;;;;;;;5.25;2.78;;;5.70;99.90;;;;;;6343705;22;20012;-91
2024/02/09 11:39:21;;;;;;;3.58;2.10;;;5.80;99.90;;;;;;6343503;22;20314;-91
2024/02/09 11:41:51;;;;;;;4.05;2.03;;;5.80;99.90;;;;;;6355046;22;20006;-89
2024/02/09 11:44:23;;;;;;;4.93;2.13;;;5.80;99.90;;;;;;6334989;22;20033;-90
2024/02/09 11:46:54;;;;;;;7.22;2.25;;;5.80;99.90;;;;;;6359499;22;20079;-91
2024/02/09 11:49:20;;;;;;;4.03;2.50;;;5.90;99.90;;;;;;6355703;22;20005;-91
2024/02/09 11:51:46;;;;;;;8.85;3.40;;;5.90;99.90;;;;;;6348268;22;20441;-90
2024/02/09 11:54:14;;;;;;;5.05;2.90;;;6.00;99.90;;;;;;6344033;22;20010;-91
2024/02/09 11:56:45;;;;;;;6.18;1.90;;;6.00;99.90;;;;;;6318513;22;19998;-90
2024/02/09 11:59:12;;;;;;;6.38;2.58;;;6.10;99.90;;;;;;6344798;22;20013;-90
2024/02/09 12:01:42;;;;;;;4.50;2.60;;;6.10;99.90;;;;;;6344535;22;19998;-90
2024/02/09 12:04:08;;;;;;;3.83;2.37;;;6.20;99.90;;;;;;6344205;22;20010;-90
2024/02/09 12:06:37;;;;;;;4.60;1.90;;;6.10;99.90;;;;;;6343800;22;20224;-90
2024/02/09 12:09:03;;;;;;;4.20;1.70;;;6.20;99.90;;;;;;6344046;22;20102;-89
2024/02/09 12:11:30;;;;;;;1.80;1.35;;;6.20;99.90;;;;;;6343009;22;20002;-89
2024/02/09 12:13:56;;;;;;;2.72;1.35;;;6.30;99.90;;;;;;6342631;22;20002;-92
2024/02/09 12:16:21;;;;;;;5.32;1.73;;;6.30;99.90;;;;;;6343419;22;20025;-90
2024/02/09 12:18:53;;;;;;;2.92;1.83;;;6.40;99.90;;;;;;6343611;22;20055;-89
2024/02/09 12:21:19;;;;;;;4.18;1.80;;;6.50;99.90;;;;;;6344832;22;20005;-89
2024/02/09 12:23:46;;;;;;;4.65;2.40;;;6.50;99.90;;;;;;6345623;22;20037;-90
2024/02/09 12:26:15;;;;;;;2.33;1.50;;;6.50;99.90;;;;;;6343461;22;20021;-90
2024/02/09 12:28:42;;;;;;;5.05;2.47;;;6.60;99.90;;;;;;6343022;22;20376;-89
2024/02/09 12:31:08;;;;;;;3.13;1.58;;;6.60;99.90;;;;;;6343268;22;20059;-90
2024/02/09 12:33:54;;;;;;;4.47;1.90;;;6.60;99.90;;;;;;6342621;22;19995;-90
2024/02/09 12:36:20;;;;;;;3.25;1.52;;;6.70;99.90;;;;;;6342949;22;20097;-89
2024/02/09 12:38:55;;;;;;;2.45;1.70;;;6.80;99.90;;;;;;6342653;22;20041;-90
2024/02/09 12:41:22;;;;;;;3.58;2.00;;;6.80;99.90;;;;;;6317116;22;20014;-90
2024/02/09 12:43:59;;;;;;;2.92;1.65;;;6.90;99.90;;;;;;6343047;22;20047;-91
2024/02/09 12:46:30;;;;;;;4.88;1.90;;;6.90;99.90;;;;;;6343254;22;20003;-89
2024/02/09 12:48:56;;;;;;;6.82;2.50;;;6.90;99.90;;;;;;6343362;22;20451;-91
2024/02/09 12:51:24;;;;;;;3.15;1.65;;;7.00;99.90;;;;;;6342695;22;20003;-90
2024/02/09 12:53:50;;;;;;;2.10;1.50;;;7.00;99.90;;;;;;6343312;22;20063;-90
2024/02/09 12:56:19;;;;;;;2.15;1.40;;;7.00;99.90;;;;;;6343934;22;20010;-90
2024/02/09 12:58:46;;;;;;;2.17;1.33;;;7.00;99.90;;;;;;6342830;22;20003;-90
2024/02/09 13:01:17;;;;;;;1.35;0.95;;;7.00;99.90;;;;;;6343506;22;20441;-90
2024/02/09 13:03:44;;;;;;;1.52;1.25;;;7.00;99.90;;;;;;6342817;22;20010;-90
2024/02/09 13:06:13;;;;;;;2.05;1.20;;;7.00;99.90;;;;;;6372748;22;20168;-91
2024/02/09 13:08:42;;;;;;;3.45;1.73;;;7.00;99.90;;;;;;6346037;22;20010;-91
2024/02/09 13:11:09;;;;;;;1.85;1.00;;;7.00;99.90;;;;;;6342452;22;20010;-91
2024/02/09 13:13:37;;;;;;;0.82;0.80;;;7.10;99.90;;;;;;6343668;22;20452;-91
2024/02/09 13:16:03;;;;;;;1.58;1.35;;;7.10;99.90;;;;;;6344211;22;20044;-90
2024/02/09 13:18:37;;;;;;;1.60;1.20;;;7.10;99.90;;;;;;6343751;22;19999;-90
2024/02/09 13:21:03;;;;;;;2.65;1.45;;;7.10;99.90;;;;;;6344159;22;20010;-90
2024/02/09 13:23:29;;;;;;;5.43;1.73;;;7.10;99.90;;;;;;6343785;22;20082;-89
2024/02/09 13:25:57;;;;;;;3.45;1.45;;;7.10;99.90;;;;;;6343975;22;20002;-89
2024/02/09 13:28:23;;;;;;;3.70;2.13;;;7.10;99.90;;;;;;6343376;22;20038;-90
2024/02/09 13:30:50;;;;;;;3.08;1.67;;;7.10;99.90;;;;;;6371041;22;20024;-90
2024/02/09 13:33:18;;;;;;;1.23;0.85;;;7.10;99.90;;;;;;6371218;22;20006;-90
2024/02/09 13:35:45;;;;;;;1.92;1.00;;;7.00;99.90;;;;;;6342697;22;20032;-90
2024/02/09 13:38:11;;;;;;;2.38;1.55;;;7.10;99.90;;;;;;6317868;22;20010;-90
2024/02/09 13:40:44;;;;;;;2.20;1.30;;;7.00;99.90;;;;;;6343037;22;20017;-90
2024/02/09 13:43:11;;;;;;;6.68;4.18;;;7.00;99.90;;;;;;6371270;22;20518;-90
2024/02/09 13:45:39;;;;;;;13.70;8.20;;;7.00;99.90;;;;;;6343386;22;20002;-90
2024/02/09 13:48:08;;;;;;;3.17;1.85;;;7.00;99.90;;;;;;6342832;22;20319;-89
2024/02/09 13:50:35;;;;;;;6.10;4.60;;;7.00;99.90;;;;;;6316712;22;20003;-89
2024/02/09 13:53:02;;;;;;;1.23;1.05;;;7.00;99.90;;;;;;6341122;22;20090;-90
2024/02/09 13:55:29;;;;;;;8.52;4.82;;;7.00;99.90;;;;;;6341985;22;20006;-90
2024/02/09 13:57:59;;;;;;;3.33;2.10;;;7.00;99.90;;;;;;6342835;22;20075;-89
2024/02/09 14:00:26;;;;;;;5.20;2.10;;;7.10;99.90;;;;;;6318164;22;20006;-90
2024/02/09 14:02:52;;;;;;;26.38;15.88;;;7.10;99.90;;;;;;6369881;22;20310;-91
2024/02/09 14:05:18;;;;;;;23.38;15.32;;;7.10;99.90;;;;;;6342474;22;20013;-90
2024/02/09 14:07:48;;;;;;;5.68;2.50;;;7.10;99.90;;;;;;6343370;22;20004;-90
2024/02/09 14:10:15;;;;;;;3.47;2.17;;;7.10;99.90;;;;;;6345288;22;20011;-89
2024/02/09 14:12:53;;;;;;;5.95;2.88;;;7.10;99.90;;;;;;6344463;22;19999;-90
2024/02/09 14:15:22;;;;;;;4.45;2.30;;;7.00;99.90;;;;;;6339863;22;20029;-90
2024/02/09 14:17:48;;;;;;;8.27;3.33;;;7.10;99.90;;;;;;6313963;22;20007;-89
2024/02/09 14:20:14;;;;;;;10.70;4.75;;;7.00;99.90;;;;;;6339340;22;20430;-90
2024/02/09 14:22:41;;;;;;;7.50;4.05;;;7.10;99.90;;;;;;6340231;22;20430;-89
2024/02/09 14:25:12;;;;;;;8.13;3.97;;;7.10;99.90;;;;;;6338645;22;20006;-90
2024/02/09 14:27:38;;;;;;;7.88;4.03;;;7.00;99.90;;;;;;6340570;22;20441;-88
2024/02/09 14:30:05;;;;;;;6.68;4.03;;;7.10;99.90;;;;;;6338732;22;19999;-89
2024/02/09 14:32:32;;;;;;;6.15;3.78;;;7.10;99.90;;;;;;6339960;22;20470;-88
2024/02/09 14:34:58;;;;;;;8.13;4.05;;;7.10;99.90;;;;;;6338356;22;20086;-88
2024/02/09 14:37:23;;;;;;;7.43;3.65;;;7.10;99.90;;;;;;6339330;22;20353;-88
2024/02/09 14:39:49;;;;;;;5.80;2.80;;;7.10;99.90;;;;;;6340374;22;20007;-88
2024/02/09 14:42:15;;;;;;;4.97;2.50;;;7.10;99.90;;;;;;6339010;22;20014;-89
2024/02/09 14:44:47;;;;;;;6.25;3.05;;;7.20;99.90;;;;;;6313647;22;20003;-89
2024/02/09 14:47:18;;;;;;;4.10;2.55;;;7.20;99.90;;;;;;6309208;22;20017;-89
2024/02/09 14:49:51;;;;;;;12.07;7.95;;;7.20;99.90;;;;;;6287194;22;20113;-89
2024/02/09 14:52:19;;;;;;;20.05;11.45;;;7.20;99.90;;;;;;6338825;22;20031;-91
2024/02/09 14:54:52;;;;;;;11.48;6.30;;;7.20;99.90;;;;;;6340395;22;20003;-89
2024/02/09 14:57:18;;;;;;;17.65;10.80;;;7.30;99.90;;;;;;6311127;22;20072;-89